METAR AND TAF INFORMATION
METAR FOR KBWI
ADDS - METARS form results

(1656 UTC 20 October 2019)
Data provider http://aviationweather.gov/metar/data/
 
METAR text: KBWI 201654Z 04011KT 2 1/2SM -RA BR BKN007 BKN022 OVC085 13/12 A2992 RMK AO2 SLP132 P0009 T01330122
Conditions at: KBWI (BALTO/WASH INTL , MD, US) observed 1654 UTC 20 October 2019
Temperature: 13.3°C (56°F)
Dewpoint: 12.2°C (54°F) [RH = 93%]
Pressure (altimeter): 29.92 inches Hg (1013.3 mb)
[Sea-level pressure: 1013.2 mb]
Winds: from the NE (40 degrees) at 13 MPH (11 knots; 5.7 m/s)
Visibility: 2.50 miles (4.02 km)
Ceiling: 700 feet AGL
Clouds: broken clouds at 700 feet AGL
broken clouds at 2200 feet AGL
overcast cloud deck at 8500 feet AGL
Weather: -RA BR  (light rain, mist)

METAR text: KBWI 201638Z 05011G19KT 3SM -RA BR BKN007 BKN024 OVC080 13/12 A2993 RMK AO2 P0007 T01330122
Conditions at: KBWI (BALTO/WASH INTL , MD, US) observed 1638 UTC 20 October 2019
Temperature: 13.3°C (56°F)
Dewpoint: 12.2°C (54°F) [RH = 93%]
Pressure (altimeter): 29.93 inches Hg (1013.6 mb)
Winds: from the NE (50 degrees) at 13 MPH (11 knots; 5.7 m/s)
gusting to 22 MPH (19 knots; 9.8 m/s)
Visibility: 3 miles ( 5 km)
Ceiling: 700 feet AGL
Clouds: broken clouds at 700 feet AGL
broken clouds at 2400 feet AGL
overcast cloud deck at 8000 feet AGL
Weather: -RA BR  (light rain, mist)

METAR text: KBWI 201620Z 05010KT 2 1/2SM -RA BR SCT008 BKN055 OVC080 13/12 A2994 RMK AO2 P0005 T01330122
Conditions at: KBWI (BALTO/WASH INTL , MD, US) observed 1620 UTC 20 October 2019
Temperature: 13.3°C (56°F)
Dewpoint: 12.2°C (54°F) [RH = 93%]
Pressure (altimeter): 29.94 inches Hg (1014.0 mb)
Winds: from the NE (50 degrees) at 12 MPH (10 knots; 5.1 m/s)
Visibility: 2.50 miles (4.02 km)
Ceiling: 5500 feet AGL
Clouds: scattered clouds at 800 feet AGL
broken clouds at 5500 feet AGL
overcast cloud deck at 8000 feet AGL
Weather: -RA BR  (light rain, mist)

Forecast for: KBWI (BALTO/WASH INTL , MD, US)
Text: KBWI 201519Z 2015/2118 06009KT 2SM RA BR OVC005
Forecast period: 1500 to 2100 UTC 20 October 2019
Forecast type: FROM: standard forecast or significant change
Winds: from the ENE (60 degrees) at 10 MPH (9 knots; 4.6 m/s)
Visibility: 2.00 miles (3.22 km)
Ceiling: 500 feet AGL
Clouds: overcast cloud deck at 500 feet AGL
Weather: RA BR  (moderate rain, mist)
Text: FM202100 01008KT 4SM BR OVC008
Forecast period: 2100 UTC 20 October 2019 to 0200 UTC 21 October 2019
Forecast type: FROM: standard forecast or significant change
Winds: from the N (10 degrees) at 9 MPH (8 knots; 4.1 m/s)
Visibility: 4 miles (6 km)
Ceiling: 800 feet AGL
Clouds: overcast cloud deck at 800 feet AGL
Weather: BR  (mist)
Text: FM210200 36007KT 5SM BR BKN015
Forecast period: 0200 to 1200 UTC 21 October 2019
Forecast type: FROM: standard forecast or significant change
Winds: from the N (360 degrees) at 8 MPH (7 knots; 3.6 m/s)
Visibility: 5 miles (8 km)
Ceiling: 1500 feet AGL
Clouds: broken clouds at 1500 feet AGL
Weather: BR  (mist)
Text: FM211200 36004KT P6SM FEW025 SCT100
Forecast period: 1200 to 1800 UTC 21 October 2019
Forecast type: FROM: standard forecast or significant change
Winds: from the N (360 degrees) at 5 MPH (4 knots; 2.1 m/s)
Visibility: 6 or more miles 10+ km)
Ceiling: at least 12,000 feet AGL
Clouds: few clouds at 2500 feet AGL
scattered clouds at 10000 feet AGL
Weather: no significant weather forecast for this period

 AIRPORT MAP

 RUNWAY INFORMATION

 AIRPORT FREQUENCIES
Type APP Name POTOMAC AP Frequency 119 MHZ
Type ATIS Name ATIS Frequency 115.1 MHZ
Type CLD Name CLNC DEL Frequency 118.05 MHZ
Type DEP Name POTOMAC DE Frequency 126.75 MHZ
Type GND Name GND Frequency 121.9 MHZ
Type RDO Name LEESBURG R Frequency 122.2 MHZ
Type TWR Name TWR Frequency 119.4 MHZ
Type UNIC Name UNICOM Frequency 122.95 MHZ

 AIRPORT NEAR NAVIGATION AIDS